Airfield :
LOGIN :

Register | Disclaimer

   EN    FR    IT 

 










Legend :    VFR   Marginal VFR   IFR   Intensive IFR   Very Intensive IFR
Visi :
Ceiling :
>= 8 km
>= 3000ft
5 to 8 km
1000 to 3000 ft
1500m to 5 km
500 to 1000 ft
800 to 1500m
200 to 500 ft
< 800m
< 200 ft
Symbols :   Thunderstorms  Fog  Heavy snow  Heavy precipitations  Wind > 20 kt
SIGMETs :     Misc.  Thunderstorms  Icing  Turbulence  Mountain Waves  Volcanic Ashes






- Airport Elevation : 39 ft
- IATA code : CTA


LICC - Catania Fontanarossa

CURRENT METAR :
  • 220020Z 26003KT CAVOK 15/15 Q1021

EXPIRED METARs :
  • 212350Z 24002KT CAVOK 16/15 Q1021
  • 212320Z 23002KT CAVOK 16/16 Q1021
  • 212250Z 24003KT CAVOK 17/16 Q1021
  • 212220Z 22004KT CAVOK 18/16 Q1021
  • 212150Z VRB01KT CAVOK 20/18 Q1021

TAF TAF LICC
Valid from the 22 at 00:00 until the 23 at 00:00 UTC


212300Z 2200/2224 VRB05KT 9999 FEW030
BECMG 2209/2211 10010KT
BECMG 2217/2219 VRB05KT



MET'MAP, your aeronautical weather chart ! - Copyright ORBIFLY December 2007 - Disclaimer

ORBIFLY MET'MAP TEAM :

Programming & Development : Alexandra Zaïnal
Concept & Development : Baudouin d'Aumeries
Co-Development & Prog : Marc-Olivier Méhu
Technical & hardware support : Manuel Goepfert

Contact : metmap@orbifly.com




SOURCES & CREDITS :

   NOAA